createdAt,value
2017-12-12T00:02:00.912Z,64.87
2017-12-12T00:04:28.397Z,65.19
2017-12-12T00:06:55.953Z,65.54
2017-12-12T00:09:23.927Z,65.71
2017-12-12T00:11:51.448Z,65.44
2017-12-12T00:14:19.246Z,65.60
2017-12-12T00:16:47.048Z,65.42
2017-12-12T00:19:14.532Z,66.00
2017-12-12T00:21:41.993Z,66.11
2017-12-12T00:24:09.539Z,66.11
2017-12-12T00:26:37.001Z,65.95
2017-12-12T00:29:04.467Z,65.95
2017-12-12T00:31:31.960Z,66.36
2017-12-12T00:33:59.419Z,66.20
2017-12-12T00:36:26.863Z,66.19
2017-12-12T00:38:54.387Z,66.42
2017-12-12T00:41:21.971Z,66.17
2017-12-12T00:43:49.452Z,65.88
2017-12-12T00:46:16.990Z,65.46
2017-12-12T00:48:44.469Z,65.81
2017-12-12T00:51:11.961Z,66.31
2017-12-12T00:53:39.497Z,66.42
2017-12-12T00:56:07.036Z,66.39
2017-12-12T00:58:34.499Z,67.31
2017-12-12T01:01:02.230Z,68.28
2017-12-12T01:03:29.699Z,70.21
2017-12-12T01:05:57.212Z,70.96
2017-12-12T01:08:24.703Z,71.66
2017-12-12T01:10:52.324Z,72.13
2017-12-12T01:13:19.814Z,71.84
2017-12-12T01:15:47.280Z,71.61
2017-12-12T01:18:14.773Z,71.98
2017-12-12T01:20:42.284Z,71.76
2017-12-12T01:23:09.750Z,72.17
2017-12-12T01:25:37.228Z,71.98
2017-12-12T01:28:04.913Z,71.78
2017-12-12T01:30:32.455Z,70.96
2017-12-12T01:32:59.942Z,70.87
2017-12-12T01:35:27.766Z,69.70
2017-12-12T01:37:55.479Z,69.23
2017-12-12T01:40:22.945Z,68.44
2017-12-12T01:42:50.423Z,68.66
2017-12-12T01:45:17.883Z,68.05
2017-12-12T01:47:45.384Z,67.64
2017-12-12T01:50:13.058Z,67.31
2017-12-12T01:52:40.529Z,67.15
2017-12-12T01:55:08.201Z,66.47
2017-12-12T01:57:35.662Z,66.34
2017-12-12T02:00:03.203Z,66.69
2017-12-12T02:02:30.689Z,65.99
2017-12-12T02:04:58.174Z,64.62
2017-12-12T02:07:25.689Z,65.02
2017-12-12T02:09:53.176Z,64.56
2017-12-12T02:12:20.679Z,64.34
2017-12-12T02:14:48.428Z,64.36
2017-12-12T02:17:15.983Z,63.46
2017-12-12T02:19:43.580Z,61.70
2017-12-12T02:22:11.091Z,61.74
2017-12-12T02:24:38.665Z,60.86
2017-12-12T02:27:06.151Z,61.17
2017-12-12T02:29:33.649Z,60.78
2017-12-12T02:32:01.127Z,60.28
2017-12-12T02:34:28.940Z,60.55
2017-12-12T02:36:56.457Z,60.82
2017-12-12T02:39:24.162Z,60.70
2017-12-12T02:41:51.679Z,60.35
2017-12-12T02:44:19.151Z,61.01
2017-12-12T02:46:46.739Z,61.25
2017-12-12T02:49:14.268Z,61.55
2017-12-12T02:51:41.784Z,61.82
2017-12-12T02:54:09.383Z,61.75
2017-12-12T02:56:36.894Z,60.19
2017-12-12T02:59:04.438Z,59.71
2017-12-12T03:01:32.981Z,59.29
2017-12-12T03:04:01.451Z,58.95
2017-12-12T03:06:29.025Z,59.28
2017-12-12T03:08:57.115Z,59.30
2017-12-12T03:11:24.627Z,59.06
2017-12-12T03:13:52.402Z,59.45
2017-12-12T03:16:19.892Z,59.49
2017-12-12T03:18:47.395Z,59.81
2017-12-12T03:21:14.909Z,59.00
2017-12-12T03:23:42.436Z,59.31
2017-12-12T03:26:09.926Z,58.34
2017-12-12T03:28:37.443Z,58.96
2017-12-12T03:31:04.996Z,58.28
2017-12-12T03:33:33.311Z,57.97
2017-12-12T03:36:00.805Z,58.08
2017-12-12T03:38:28.289Z,57.99
2017-12-12T03:40:55.864Z,57.86
2017-12-12T03:43:23.358Z,57.65
2017-12-12T03:45:50.975Z,56.52
2017-12-12T03:48:18.854Z,57.12
2017-12-12T03:50:46.350Z,57.67
2017-12-12T03:53:13.857Z,56.83
2017-12-12T03:55:41.351Z,57.37
2017-12-12T03:58:08.814Z,58.27
2017-12-12T04:00:36.443Z,57.47
2017-12-12T04:03:03.921Z,58.47
2017-12-12T04:05:31.392Z,58.91
2017-12-12T04:07:58.897Z,58.22
2017-12-12T04:10:26.404Z,58.48
2017-12-12T04:12:53.908Z,59.77
2017-12-12T04:15:21.447Z,59.48
2017-12-12T04:17:48.940Z,59.42
2017-12-12T04:20:16.404Z,59.87
2017-12-12T04:22:43.919Z,60.15
2017-12-12T04:25:11.608Z,59.81
2017-12-12T04:27:39.125Z,60.05
2017-12-12T04:30:06.616Z,60.33
2017-12-12T04:32:34.106Z,60.47
2017-12-12T04:35:01.737Z,61.01
2017-12-12T04:37:29.874Z,60.10
2017-12-12T04:39:58.727Z,60.09
2017-12-12T04:42:26.192Z,59.55
2017-12-12T04:44:53.712Z,58.78
2017-12-12T04:47:21.221Z,59.19
2017-12-12T04:49:48.691Z,59.59
2017-12-12T04:52:16.214Z,59.67
2017-12-12T04:54:43.670Z,59.93
2017-12-12T04:57:11.184Z,60.11
2017-12-12T04:59:38.669Z,59.78
2017-12-12T05:02:06.193Z,60.07
2017-12-12T05:04:33.839Z,60.88
2017-12-12T05:07:01.413Z,59.78
2017-12-12T05:09:29.000Z,59.12
2017-12-12T05:11:56.525Z,59.78
2017-12-12T05:14:24.701Z,59.65
2017-12-12T05:16:53.201Z,59.52
2017-12-12T05:19:20.704Z,59.09
2017-12-12T05:21:48.190Z,59.51
2017-12-12T05:24:15.717Z,60.02
2017-12-12T05:26:44.752Z,60.45
2017-12-12T05:29:13.405Z,60.03
2017-12-12T05:31:42.849Z,60.29
2017-12-12T05:34:11.851Z,60.33
2017-12-12T05:36:39.541Z,60.84
2017-12-12T05:39:07.143Z,61.25
2017-12-12T05:41:34.628Z,61.13
2017-12-12T05:44:02.345Z,61.89
2017-12-12T05:46:29.896Z,63.17
2017-12-12T05:48:57.390Z,63.21
2017-12-12T05:51:25.977Z,64.31
2017-12-12T05:53:53.423Z,64.91
2017-12-12T05:56:21.002Z,65.48
2017-12-12T05:58:48.506Z,63.09
2017-12-12T06:01:16.000Z,61.73
2017-12-12T06:03:43.512Z,61.55
2017-12-12T06:06:11.012Z,61.18
2017-12-12T06:08:39.449Z,60.86
2017-12-12T06:11:06.927Z,60.15
2017-12-12T06:13:34.417Z,60.32
2017-12-12T06:16:01.914Z,60.71
2017-12-12T06:18:29.371Z,60.68
2017-12-12T06:20:56.842Z,60.91
2017-12-12T06:23:24.344Z,60.95
2017-12-12T06:25:51.842Z,60.79
2017-12-12T06:28:19.349Z,60.24
2017-12-12T06:30:46.879Z,59.86
2017-12-12T06:33:14.544Z,59.67
2017-12-12T06:35:41.979Z,58.57
2017-12-12T06:38:09.439Z,58.80
2017-12-12T06:40:36.938Z,58.73
2017-12-12T06:43:04.439Z,59.67
2017-12-12T06:45:31.921Z,59.66
2017-12-12T06:47:59.389Z,60.05
2017-12-12T06:50:26.943Z,59.42
2017-12-12T06:52:54.562Z,59.28
2017-12-12T06:55:22.007Z,58.88
2017-12-12T06:57:49.537Z,59.25
2017-12-12T07:00:17.037Z,59.31
2017-12-12T07:05:18.606Z,59.28
2017-12-12T07:07:46.125Z,59.39
2017-12-12T07:10:13.608Z,59.75
2017-12-12T07:12:41.060Z,58.95
2017-12-12T07:15:08.554Z,59.56
2017-12-12T07:17:36.118Z,59.40
2017-12-12T07:20:03.682Z,59.86
2017-12-12T07:22:31.139Z,59.58
2017-12-12T07:24:58.592Z,59.99
2017-12-12T07:27:26.077Z,60.69
2017-12-12T07:29:53.550Z,60.52
2017-12-12T07:32:21.040Z,59.95
2017-12-12T07:34:48.497Z,60.00
2017-12-12T07:37:16.011Z,59.85
2017-12-12T07:39:43.563Z,60.10
2017-12-12T07:42:11.071Z,59.83
2017-12-12T07:44:38.675Z,59.21
2017-12-12T07:47:06.159Z,60.11
2017-12-12T07:49:33.642Z,59.89
2017-12-12T07:52:01.795Z,60.17
2017-12-12T07:54:29.291Z,60.16
2017-12-12T07:56:56.843Z,60.42
2017-12-12T07:59:24.295Z,60.44
2017-12-12T08:01:51.790Z,60.11
2017-12-12T08:04:19.278Z,60.31
2017-12-12T08:06:46.892Z,60.90
2017-12-12T08:09:14.440Z,60.97
2017-12-12T08:11:41.952Z,61.44
2017-12-12T08:16:36.310Z,60.88
2017-12-12T08:19:03.871Z,61.07
2017-12-12T08:21:32.035Z,61.02
2017-12-12T08:23:59.668Z,60.56
2017-12-12T08:26:27.124Z,60.73
2017-12-12T08:28:54.683Z,61.06
2017-12-12T08:31:22.131Z,60.70
2017-12-12T08:33:49.656Z,60.49
2017-12-12T08:36:17.189Z,60.36
2017-12-12T08:38:45.069Z,59.74
2017-12-12T08:41:12.589Z,60.22
2017-12-12T08:43:40.062Z,60.15
2017-12-12T08:46:07.584Z,60.65
2017-12-12T08:48:35.227Z,60.14
2017-12-12T08:51:02.701Z,60.96
2017-12-12T08:53:30.198Z,60.38
2017-12-12T08:55:57.683Z,59.73
2017-12-12T08:58:25.199Z,59.18
2017-12-12T09:00:54.035Z,59.31
2017-12-12T09:03:21.612Z,59.56
2017-12-12T09:05:49.251Z,59.20
2017-12-12T09:08:16.823Z,59.53
2017-12-12T09:10:44.324Z,59.79
2017-12-12T09:13:11.808Z,60.39
2017-12-12T09:15:39.305Z,60.59
2017-12-12T09:18:07.050Z,59.85
2017-12-12T09:20:34.547Z,60.35
2017-12-12T09:23:02.084Z,59.51
2017-12-12T09:25:29.616Z,59.62
2017-12-12T09:27:57.088Z,59.88
2017-12-12T09:30:25.186Z,59.48
2017-12-12T09:32:52.835Z,59.56
2017-12-12T09:35:20.368Z,59.96
2017-12-12T09:37:47.935Z,59.92
2017-12-12T09:40:15.575Z,60.01
2017-12-12T09:42:43.102Z,60.46
2017-12-12T09:45:10.932Z,60.45
2017-12-12T09:47:38.515Z,60.21
2017-12-12T09:50:06.036Z,59.60
2017-12-12T09:52:33.600Z,59.92
2017-12-12T09:55:01.243Z,59.84
2017-12-12T09:57:29.036Z,59.50
2017-12-12T09:59:56.579Z,59.78
2017-12-12T10:02:24.176Z,59.41
2017-12-12T10:04:51.728Z,59.89
2017-12-12T10:07:19.292Z,60.15
2017-12-12T10:09:46.911Z,60.68
2017-12-12T10:12:14.424Z,60.72
2017-12-12T10:14:41.961Z,60.39
2017-12-12T10:17:09.564Z,60.87
2017-12-12T10:19:37.189Z,61.11
2017-12-12T10:22:04.679Z,61.18
2017-12-12T10:24:32.190Z,60.85
2017-12-12T10:27:00.156Z,60.37
2017-12-12T10:29:28.375Z,61.11
2017-12-12T10:31:55.856Z,61.57
2017-12-12T10:34:23.468Z,62.04
2017-12-12T10:36:51.071Z,61.93
2017-12-12T10:39:18.738Z,61.90
2017-12-12T10:41:46.587Z,62.42
2017-12-12T10:44:14.185Z,62.80
2017-12-12T10:46:41.716Z,62.74
2017-12-12T10:49:09.265Z,61.86
2017-12-12T10:51:36.857Z,62.00
2017-12-12T10:54:04.489Z,61.95
2017-12-12T10:56:32.347Z,62.37
2017-12-12T10:59:00.398Z,62.36
2017-12-12T11:01:28.024Z,62.89
2017-12-12T11:03:55.527Z,62.75
2017-12-12T11:06:22.997Z,62.47
2017-12-12T11:08:50.583Z,62.84
2017-12-12T11:11:18.395Z,62.53
2017-12-12T11:13:46.150Z,62.08
2017-12-12T11:16:13.676Z,62.84
2017-12-12T11:18:41.264Z,62.48
2017-12-12T11:21:08.767Z,62.18
2017-12-12T11:23:43.168Z,62.31
2017-12-12T11:26:10.688Z,62.75
2017-12-12T11:28:39.239Z,62.65
2017-12-12T11:31:12.758Z,63.16
2017-12-12T11:33:40.256Z,62.56
2017-12-12T11:36:07.862Z,62.56
2017-12-12T11:38:35.511Z,62.20
2017-12-12T11:41:03.063Z,62.36
2017-12-12T11:43:30.580Z,62.13
2017-12-12T11:45:58.303Z,62.26
2017-12-12T11:48:25.841Z,62.03
2017-12-12T11:50:53.378Z,62.12
2017-12-12T11:53:20.876Z,61.25
2017-12-12T11:55:48.403Z,61.00
2017-12-12T11:58:15.853Z,59.96
2017-12-12T12:00:43.347Z,59.08
2017-12-12T12:03:10.891Z,59.53
2017-12-12T12:05:38.361Z,59.57
2017-12-12T12:08:05.849Z,59.34
2017-12-12T12:10:33.319Z,59.29
2017-12-12T12:13:01.079Z,60.09
2017-12-12T12:15:28.606Z,59.11
2017-12-12T12:17:56.089Z,59.21
2017-12-12T12:20:23.709Z,59.62
2017-12-12T12:22:51.214Z,59.84
2017-12-12T12:25:18.727Z,59.29
2017-12-12T12:27:46.231Z,57.47
2017-12-12T12:30:13.815Z,58.72
2017-12-12T12:32:41.372Z,58.17
2017-12-12T12:35:09.537Z,58.71
2017-12-12T12:37:37.024Z,58.95
2017-12-12T12:40:04.558Z,58.87
2017-12-12T12:42:32.094Z,58.98
2017-12-12T12:44:59.561Z,58.63
2017-12-12T12:47:27.325Z,58.38
2017-12-12T12:49:54.945Z,58.99
2017-12-12T12:52:22.934Z,59.06
2017-12-12T12:54:50.438Z,59.02
2017-12-12T12:57:18.011Z,58.88
2017-12-12T12:59:45.994Z,58.74
2017-12-12T13:02:13.732Z,58.32
2017-12-12T13:04:41.248Z,58.82
2017-12-12T13:07:08.739Z,58.20
2017-12-12T13:09:36.808Z,58.61
2017-12-12T13:12:04.306Z,58.37
2017-12-12T13:14:31.772Z,58.22
2017-12-12T13:16:59.256Z,58.61
2017-12-12T13:19:26.901Z,58.56
2017-12-12T13:21:55.360Z,59.51
2017-12-12T13:24:22.991Z,58.99
2017-12-12T13:26:50.519Z,58.85
2017-12-12T13:29:17.979Z,58.45
2017-12-12T13:31:46.468Z,58.59
2017-12-12T13:34:14.138Z,58.12
2017-12-12T13:36:42.020Z,58.25
2017-12-12T13:39:09.545Z,57.86
2017-12-12T13:41:37.153Z,58.09
2017-12-12T13:44:04.620Z,58.10
2017-12-12T13:46:32.196Z,57.76
2017-12-12T13:48:59.821Z,58.45
2017-12-12T13:51:28.160Z,57.92
2017-12-12T13:53:55.868Z,58.50
2017-12-12T13:56:23.391Z,58.39
2017-12-12T13:58:51.271Z,58.21
2017-12-12T14:01:18.785Z,58.77
2017-12-12T14:03:46.282Z,59.09
2017-12-12T14:06:13.939Z,58.36
2017-12-12T14:08:41.545Z,58.52
2017-12-12T14:11:09.076Z,58.82
2017-12-12T14:13:36.723Z,59.53
2017-12-12T14:16:04.316Z,59.24
2017-12-12T14:18:31.804Z,59.65
2017-12-12T14:20:59.509Z,58.55
2017-12-12T14:23:27.208Z,58.77
2017-12-12T14:25:54.795Z,58.96
2017-12-12T14:28:22.327Z,59.40
2017-12-12T14:30:49.870Z,59.18
2017-12-12T14:33:17.425Z,59.93
2017-12-12T14:35:44.952Z,59.25
2017-12-12T14:38:12.727Z,59.29
2017-12-12T14:40:40.306Z,59.80
2017-12-12T14:43:07.914Z,59.30
2017-12-12T14:45:35.542Z,58.94
2017-12-12T14:48:03.067Z,59.47
2017-12-12T14:50:31.284Z,59.48
2017-12-12T14:52:58.813Z,58.96
2017-12-12T14:55:26.315Z,59.07
2017-12-12T14:57:53.832Z,58.48
2017-12-12T15:00:21.312Z,58.75
2017-12-12T15:02:48.853Z,59.08
2017-12-12T15:05:16.533Z,59.57
2017-12-12T15:07:44.050Z,59.71
2017-12-12T15:10:11.637Z,58.98
2017-12-12T15:12:39.140Z,59.12
2017-12-12T15:15:06.659Z,59.14
2017-12-12T15:17:34.199Z,59.00
2017-12-12T15:20:01.772Z,59.85
2017-12-12T15:22:29.412Z,59.89
2017-12-12T15:24:56.884Z,59.38
2017-12-12T15:27:24.461Z,60.06
2017-12-12T15:29:51.952Z,59.67
2017-12-12T15:32:19.654Z,59.88
2017-12-12T15:34:47.260Z,59.87
2017-12-12T15:37:14.802Z,59.82
2017-12-12T15:39:42.343Z,60.23
2017-12-12T15:42:10.082Z,59.72
2017-12-12T15:44:37.712Z,60.18
2017-12-12T15:47:05.199Z,60.23
2017-12-12T15:49:32.963Z,60.63
2017-12-12T15:52:00.451Z,59.96
2017-12-12T15:54:28.094Z,60.05
2017-12-12T15:56:55.801Z,59.68
2017-12-12T15:59:23.311Z,60.62
2017-12-12T16:01:50.952Z,60.50
2017-12-12T16:04:19.270Z,60.24
2017-12-12T16:06:46.982Z,60.38
2017-12-12T16:09:14.640Z,59.28
2017-12-12T16:11:42.260Z,60.13
2017-12-12T16:14:10.028Z,59.29
2017-12-12T16:16:37.688Z,59.62
2017-12-12T16:19:05.247Z,59.52
2017-12-12T16:21:33.540Z,59.14
2017-12-12T16:24:01.333Z,58.88
2017-12-12T16:26:28.842Z,58.69
2017-12-12T16:28:56.510Z,58.84
2017-12-12T16:31:24.835Z,58.91
2017-12-12T16:33:52.400Z,59.33
2017-12-12T16:36:19.905Z,60.19
2017-12-12T16:38:48.815Z,59.74
2017-12-12T16:41:17.222Z,59.46
2017-12-12T16:43:44.781Z,59.54
2017-12-12T16:46:12.511Z,59.07
2017-12-12T16:48:40.082Z,58.89
2017-12-12T16:51:07.637Z,58.80
2017-12-12T16:53:35.185Z,58.73
2017-12-12T16:56:02.724Z,58.48
2017-12-12T16:58:30.231Z,58.66
2017-12-12T17:00:57.741Z,58.71
2017-12-12T17:03:25.220Z,59.51
2017-12-12T17:05:54.852Z,59.57
2017-12-12T17:08:22.484Z,59.95
2017-12-12T17:10:50.052Z,60.41
2017-12-12T17:13:17.703Z,60.88
2017-12-12T17:15:45.198Z,60.87
2017-12-12T17:18:16.036Z,60.87
2017-12-12T17:20:44.598Z,60.69
2017-12-12T17:23:12.169Z,60.15
2017-12-12T17:25:39.851Z,60.54
2017-12-12T17:28:07.422Z,60.47
2017-12-12T17:30:34.955Z,59.79
2017-12-12T17:33:03.088Z,59.86
2017-12-12T17:35:30.612Z,59.70
2017-12-12T17:37:58.171Z,59.82
2017-12-12T17:40:25.776Z,59.46
2017-12-12T17:42:53.392Z,59.92
2017-12-12T17:45:20.928Z,60.05
2017-12-12T17:47:48.531Z,59.57
2017-12-12T17:50:16.213Z,59.74
2017-12-12T17:52:43.793Z,60.14
2017-12-12T17:55:11.315Z,60.90
2017-12-12T17:57:38.831Z,61.24
2017-12-12T18:00:06.373Z,60.67
2017-12-12T18:02:33.949Z,60.50
2017-12-12T18:05:01.462Z,60.34
2017-12-12T18:07:28.993Z,60.23
2017-12-12T18:09:56.481Z,61.35
2017-12-12T18:12:24.364Z,62.50
2017-12-12T18:14:52.021Z,62.45
2017-12-12T18:17:19.546Z,62.39
2017-12-12T18:19:47.106Z,62.83
2017-12-12T18:22:14.765Z,62.52
2017-12-12T18:24:42.335Z,62.09
2017-12-12T18:27:09.889Z,62.51
2017-12-12T18:29:37.411Z,63.69
2017-12-12T18:32:04.903Z,63.56
2017-12-12T18:34:33.150Z,63.34
2017-12-12T18:37:00.730Z,64.91
2017-12-12T18:39:28.203Z,64.36
2017-12-12T18:41:55.721Z,64.44
2017-12-12T18:44:23.239Z,65.10
2017-12-12T18:46:50.974Z,65.28
2017-12-12T18:49:25.644Z,64.86
2017-12-12T18:51:53.217Z,65.36
2017-12-12T18:54:21.079Z,65.77
2017-12-12T18:56:48.639Z,65.67
2017-12-12T18:59:16.158Z,66.18
2017-12-12T19:01:43.736Z,65.42
2017-12-12T19:04:11.368Z,64.15
2017-12-12T19:06:39.245Z,64.62
2017-12-12T19:09:07.128Z,65.65
2017-12-12T19:11:34.691Z,65.49
2017-12-12T19:14:02.216Z,66.34
2017-12-12T19:16:30.701Z,66.56
2017-12-12T19:18:58.491Z,65.57
2017-12-12T19:21:26.027Z,64.33
2017-12-12T19:23:53.585Z,63.66
2017-12-12T19:26:21.158Z,64.18
2017-12-12T19:28:48.720Z,64.64
2017-12-12T19:31:16.448Z,65.34
2017-12-12T19:33:44.014Z,66.26
2017-12-12T19:36:12.437Z,66.65
2017-12-12T19:38:40.064Z,67.06
2017-12-12T19:41:07.682Z,67.72
2017-12-12T19:43:35.540Z,67.19
2017-12-12T19:46:03.320Z,67.48
2017-12-12T19:48:31.036Z,67.38
2017-12-12T19:50:58.725Z,67.25
2017-12-12T19:53:26.534Z,68.75
2017-12-12T19:55:55.226Z,68.32
2017-12-12T19:58:22.936Z,69.08
2017-12-12T20:00:50.900Z,67.43
2017-12-12T20:03:19.431Z,67.71
2017-12-12T20:05:47.272Z,66.78
2017-12-12T20:08:14.985Z,65.79
2017-12-12T20:10:43.136Z,65.55
2017-12-12T20:13:11.555Z,64.30
2017-12-12T20:15:39.500Z,64.00
2017-12-12T20:18:07.170Z,63.87
2017-12-12T20:20:34.764Z,63.72
2017-12-12T20:23:02.411Z,62.96
2017-12-12T20:25:31.192Z,62.58
2017-12-12T20:27:59.252Z,62.84
2017-12-12T20:30:27.884Z,62.63
2017-12-12T20:32:55.525Z,62.96
2017-12-12T20:35:23.180Z,63.47
2017-12-12T20:37:50.861Z,63.36
2017-12-12T20:40:18.805Z,63.27
2017-12-12T20:42:46.493Z,63.50
2017-12-12T20:45:14.239Z,63.51
2017-12-12T20:47:42.881Z,63.50
2017-12-12T20:50:11.260Z,63.72
2017-12-12T20:52:39.465Z,63.70
2017-12-12T20:55:07.047Z,63.76
2017-12-12T20:57:35.694Z,63.49
2017-12-12T21:00:03.314Z,63.39
2017-12-12T21:02:31.141Z,63.11
2017-12-12T21:04:58.759Z,63.66
2017-12-12T21:07:31.847Z,63.72
2017-12-12T21:09:59.638Z,64.79
2017-12-12T21:12:27.778Z,63.97
2017-12-12T21:14:55.468Z,64.66
2017-12-12T21:17:22.993Z,64.56
2017-12-12T21:19:50.573Z,64.74
2017-12-12T21:22:18.216Z,65.50
2017-12-12T21:24:45.790Z,65.38
2017-12-12T21:27:13.352Z,64.20
2017-12-12T21:29:40.852Z,63.55
2017-12-12T21:32:08.383Z,63.59
2017-12-12T21:34:35.875Z,63.17
2017-12-12T21:37:03.388Z,63.14
2017-12-12T21:39:31.129Z,64.14
2017-12-12T21:41:59.331Z,63.89
2017-12-12T21:44:27.040Z,64.58
2017-12-12T21:46:54.715Z,64.19
2017-12-12T21:49:23.090Z,63.93
2017-12-12T21:51:50.772Z,64.14
2017-12-12T21:54:18.551Z,64.01
2017-12-12T21:56:46.079Z,64.23
2017-12-12T21:59:13.546Z,63.52
2017-12-12T22:01:41.351Z,63.32
2017-12-12T22:04:09.024Z,64.22
2017-12-12T22:06:36.590Z,64.69
2017-12-12T22:09:04.195Z,65.15
2017-12-12T22:11:31.754Z,65.09
2017-12-12T22:13:59.312Z,65.05
2017-12-12T22:16:27.677Z,65.58
2017-12-12T22:18:55.221Z,65.79
2017-12-12T22:21:22.878Z,65.78
2017-12-12T22:23:51.548Z,66.31
2017-12-12T22:26:19.688Z,66.52
2017-12-12T22:28:47.228Z,66.42
2017-12-12T22:31:14.838Z,66.65
2017-12-12T22:33:42.416Z,65.84
2017-12-12T22:36:09.931Z,65.94
2017-12-12T22:38:38.497Z,65.66
2017-12-12T22:41:06.037Z,65.97
2017-12-12T22:43:33.550Z,65.80
2017-12-12T22:46:01.263Z,65.95
2017-12-12T22:48:28.786Z,65.70
2017-12-12T22:50:56.294Z,65.88
2017-12-12T22:53:24.650Z,65.82
2017-12-12T22:55:52.159Z,65.50
2017-12-12T22:58:19.748Z,65.67
2017-12-12T23:00:50.004Z,65.48
2017-12-12T23:03:18.753Z,65.88
2017-12-12T23:05:46.493Z,66.30
2017-12-12T23:08:14.374Z,66.28
2017-12-12T23:10:42.689Z,66.02
2017-12-12T23:15:44.423Z,67.10
2017-12-12T23:18:13.389Z,66.03
2017-12-12T23:20:40.910Z,66.04
2017-12-12T23:23:08.461Z,65.47
2017-12-12T23:25:35.980Z,65.52
2017-12-12T23:28:03.546Z,65.30
2017-12-12T23:30:31.045Z,65.41
2017-12-12T23:32:58.568Z,65.03
2017-12-12T23:35:26.120Z,64.99
2017-12-12T23:37:53.669Z,65.24
2017-12-12T23:40:21.255Z,65.27
2017-12-12T23:42:48.831Z,65.08
2017-12-12T23:45:16.439Z,65.49
2017-12-12T23:47:43.952Z,65.44
2017-12-12T23:50:11.623Z,65.85
2017-12-12T23:52:39.203Z,65.62
2017-12-12T23:55:06.756Z,65.94
2017-12-12T23:57:34.438Z,66.62
